Terminal Aerodrome Forecast
Issued by NWS Glasgow, MT

Home | Current Version | Previous Version | Text Only | Print | Product List | Glossary On
Versions: 1 2 3 4 5 6 7 8 9 10 11 12 13 14 15 16 17
000
FTUS45 KGGW 041720
TAFGGW
TAF
KGGW 041720Z 0418/0518 18007KT P6SM VCSH SCT100
     FM050000 23009KT 5SM -SN BKN050
     FM050300 26009KT 2SM -SN OVC070
     FM050600 29012KT 1SM -SN OVC015
     FM051200 31017G25KT P6SM BKN020=

USA.gov is the U.S. government's official web portal to all federal, state and local government web resources and services.